Time;durP1;ratioP1;P1;durP2;ratioP2;P2;SDS_P1;SDS_P2;PMS_P1;PMS_P2;Temp;Humidity;BMP_temperature;BMP_pressure;BME280_temperature;BME280_humidity;BME280_pressure;Samples;Min_cycle;Max_cycle;Signal;HPM_P1;HPM_P2
2021/08/20 00:01:39;;;;;;;5.82;3.42;;;21.80;77.00;;;;;;5012616;28;20028;-59
2021/08/20 00:04:06;;;;;;;6.63;3.47;;;21.70;77.00;;;;;;5035714;28;20017;-59
2021/08/20 00:06:34;;;;;;;15.48;3.50;;;21.70;77.10;;;;;;5070277;28;20574;-59
2021/08/20 00:09:00;;;;;;;8.10;3.30;;;21.70;77.20;;;;;;5045357;28;20095;-60
2021/08/20 00:11:26;;;;;;;6.82;3.15;;;21.60;77.20;;;;;;5048511;28;20295;-59
2021/08/20 00:13:51;;;;;;;4.35;3.38;;;21.70;77.30;;;;;;5064775;28;20040;-59
2021/08/20 00:16:17;;;;;;;5.20;3.58;;;21.60;77.30;;;;;;5049107;28;20115;-59
2021/08/20 00:18:42;;;;;;;5.07;3.15;;;21.60;77.40;;;;;;5057674;28;20028;-59
2021/08/20 00:21:11;;;;;;;3.33;2.67;;;21.60;78.10;;;;;;5046739;28;20060;-59
2021/08/20 00:23:36;;;;;;;8.88;3.20;;;21.60;77.40;;;;;;5046088;28;20158;-59
2021/08/20 00:26:02;;;;;;;4.72;3.15;;;21.60;77.50;;;;;;5044344;28;20104;-59
2021/08/20 00:28:28;;;;;;;4.57;3.53;;;21.60;77.50;;;;;;5010409;28;20032;-60
2021/08/20 00:30:53;;;;;;;4.50;3.22;;;21.60;77.60;;;;;;5016359;28;20028;-59
2021/08/20 00:33:19;;;;;;;4.95;3.28;;;21.60;77.70;;;;;;5025154;28;20032;-59
2021/08/20 00:35:44;;;;;;;7.55;3.15;;;21.50;77.60;;;;;;5059710;28;20039;-59
2021/08/20 00:38:10;;;;;;;5.28;3.40;;;21.60;77.80;;;;;;5030444;28;20027;-59
2021/08/20 00:40:36;;;;;;;5.00;3.55;;;21.60;77.80;;;;;;5042175;28;20036;-58
2021/08/20 00:43:02;;;;;;;8.85;3.65;;;21.50;77.80;;;;;;5026193;28;20494;-59
2021/08/20 00:45:27;;;;;;;7.28;3.85;;;21.50;77.90;;;;;;5023910;28;20036;-60
2021/08/20 00:47:53;;;;;;;5.63;3.95;;;21.50;77.90;;;;;;5047025;28;20162;-59
2021/08/20 00:50:18;;;;;;;5.78;3.83;;;21.50;78.00;;;;;;5060546;28;20098;-59
2021/08/20 00:52:44;;;;;;;7.82;3.92;;;21.50;78.00;;;;;;5029909;28;20028;-59
2021/08/20 00:55:10;;;;;;;5.25;3.40;;;21.50;78.10;;;;;;5047934;28;20484;-59
2021/08/20 00:57:36;;;;;;;6.72;3.95;;;21.50;78.10;;;;;;5046934;28;20544;-59
2021/08/20 01:00:01;;;;;;;5.82;3.75;;;21.40;78.20;;;;;;5065385;28;20028;-59
2021/08/20 01:02:27;;;;;;;4.93;3.58;;;21.40;78.20;;;;;;5045735;28;20369;-59
2021/08/20 01:04:52;;;;;;;4.60;3.72;;;21.40;78.20;;;;;;5057260;28;20029;-59
2021/08/20 01:07:18;;;;;;;4.10;3.47;;;21.40;78.30;;;;;;5056135;28;20117;-59
2021/08/20 01:09:47;;;;;;;7.30;3.90;;;21.40;78.40;;;;;;5038812;28;20771;-59
2021/08/20 01:12:13;;;;;;;7.20;3.67;;;21.40;78.40;;;;;;5043736;28;20032;-59
2021/08/20 01:14:38;;;;;;;6.90;3.88;;;21.40;78.40;;;;;;5014711;28;20114;-60
2021/08/20 01:17:04;;;;;;;6.60;4.70;;;21.30;78.30;;;;;;5047288;28;20060;-59
2021/08/20 01:19:31;;;;;;;6.50;5.00;;;21.30;78.40;;;;;;5043036;28;20261;-59
2021/08/20 01:21:56;;;;;;;6.03;3.92;;;21.30;78.40;;;;;;5009237;28;20040;-60
2021/08/20 01:24:22;;;;;;;5.78;4.60;;;21.30;78.50;;;;;;5047650;28;20051;-60
2021/08/20 01:26:50;;;;;;;6.28;4.25;;;21.30;78.60;;;;;;5014061;28;20110;-59
2021/08/20 01:29:16;;;;;;;6.03;4.07;;;21.30;78.50;;;;;;5041625;28;20020;-59
2021/08/20 01:31:46;;;;;;;5.40;3.70;;;21.30;78.60;;;;;;5042792;28;20151;-60
2021/08/20 01:34:12;;;;;;;6.25;3.65;;;21.30;78.60;;;;;;5037836;28;20460;-60
2021/08/20 01:36:38;;;;;;;6.20;3.65;;;21.30;78.70;;;;;;5043412;28;20028;-60
2021/08/20 01:39:03;;;;;;;6.45;3.70;;;21.30;78.80;;;;;;5009271;28;20059;-60
2021/08/20 01:41:29;;;;;;;4.07;3.53;;;21.20;78.80;;;;;;5043998;28;20036;-60
2021/08/20 01:43:55;;;;;;;6.40;3.50;;;21.20;78.80;;;;;;5042603;28;20611;-60
2021/08/20 01:46:20;;;;;;;4.60;3.40;;;21.20;78.80;;;;;;5042447;28;20149;-60
2021/08/20 01:48:47;;;;;;;5.18;3.90;;;21.20;78.90;;;;;;5009383;28;20074;-59
2021/08/20 01:51:14;;;;;;;4.30;3.25;;;21.20;78.90;;;;;;5012886;28;20055;-60
2021/08/20 01:53:40;;;;;;;3.30;3.00;;;21.20;79.00;;;;;;5026664;28;20693;-59
2021/08/20 01:56:06;;;;;;;4.82;3.28;;;21.20;79.10;;;;;;5027434;28;20028;-59
2021/08/20 01:58:31;;;;;;;4.35;3.53;;;21.20;79.10;;;;;;5041570;28;20103;-60
2021/08/20 02:00:57;;;;;;;4.90;3.55;;;21.10;79.10;;;;;;5042111;28;20072;-60
2021/08/20 02:03:22;;;;;;;4.50;3.42;;;21.10;79.20;;;;;;5010928;28;20364;-60
2021/08/20 02:05:48;;;;;;;5.70;3.80;;;21.10;79.20;;;;;;5047879;28;20464;-59
2021/08/20 02:08:13;;;;;;;4.65;3.80;;;21.10;79.30;;;;;;5034044;28;20550;-60
2021/08/20 02:10:39;;;;;;;5.80;4.20;;;21.10;79.30;;;;;;5061795;28;20029;-60
2021/08/20 02:13:04;;;;;;;6.57;4.30;;;21.10;79.30;;;;;;5041612;28;20515;-59
2021/08/20 02:15:30;;;;;;;5.65;4.05;;;21.10;79.50;;;;;;5029304;28;20051;-59
2021/08/20 02:17:56;;;;;;;5.90;4.10;;;21.10;79.50;;;;;;5027547;28;20382;-59
2021/08/20 02:20:21;;;;;;;4.35;3.80;;;21.10;79.50;;;;;;5043049;28;20494;-59
2021/08/20 02:22:47;;;;;;;6.07;4.00;;;21.00;79.50;;;;;;5044885;28;20036;-60
2021/08/20 02:25:12;;;;;;;5.95;3.47;;;21.00;79.50;;;;;;5044870;28;20056;-59
2021/08/20 02:27:38;;;;;;;4.10;3.60;;;21.00;79.50;;;;;;5042694;28;20020;-60
2021/08/20 02:30:05;;;;;;;4.43;3.50;;;21.00;79.60;;;;;;5045385;28;20399;-60
2021/08/20 02:32:30;;;;;;;3.75;3.38;;;21.00;79.60;;;;;;5013148;28;20453;-59
2021/08/20 02:34:56;;;;;;;6.20;4.32;;;21.00;79.80;;;;;;5044498;28;20119;-59
2021/08/20 02:37:21;;;;;;;5.88;4.65;;;21.00;79.80;;;;;;5059675;28;20032;-60
2021/08/20 02:39:47;;;;;;;6.45;4.30;;;20.90;79.80;;;;;;5042599;28;20045;-60
2021/08/20 02:42:12;;;;;;;5.03;4.30;;;20.90;80.00;;;;;;5044539;28;20040;-60
2021/08/20 02:44:38;;;;;;;4.78;4.03;;;20.90;80.10;;;;;;5057419;28;20028;-59
2021/08/20 02:47:04;;;;;;;5.20;3.80;;;20.90;80.00;;;;;;5053896;28;20048;-59
2021/08/20 02:49:29;;;;;;;4.22;3.58;;;20.90;80.20;;;;;;5035118;28;20319;-60
2021/08/20 02:51:55;;;;;;;6.82;3.85;;;20.90;80.10;;;;;;5042338;28;20044;-60
2021/08/20 02:54:20;;;;;;;4.00;3.58;;;20.90;80.10;;;;;;5046927;28;20028;-60
2021/08/20 02:56:46;;;;;;;4.70;3.58;;;20.90;80.20;;;;;;5057503;28;20036;-60
2021/08/20 02:59:11;;;;;;;5.70;3.53;;;20.90;80.30;;;;;;5031604;28;20613;-60
2021/08/20 03:01:37;;;;;;;4.10;3.70;;;20.80;80.20;;;;;;5039288;28;20054;-59
2021/08/20 03:04:02;;;;;;;4.43;3.40;;;20.80;80.10;;;;;;5031183;28;20553;-60
2021/08/20 03:06:29;;;;;;;4.88;3.88;;;20.80;80.20;;;;;;5065639;28;20464;-60
2021/08/20 03:08:55;;;;;;;6.38;3.30;;;20.80;80.10;;;;;;5044536;28;20028;-60
2021/08/20 03:11:21;;;;;;;5.28;2.90;;;20.80;80.20;;;;;;5029371;28;21007;-59
2021/08/20 03:13:46;;;;;;;3.65;3.17;;;20.80;80.20;;;;;;5044898;28;20135;-59
2021/08/20 03:16:12;;;;;;;8.75;3.78;;;20.80;80.30;;;;;;5048717;28;20123;-60
2021/08/20 03:18:37;;;;;;;3.78;3.38;;;20.70;80.20;;;;;;5014444;28;20040;-59
2021/08/20 03:21:03;;;;;;;3.95;3.55;;;20.80;80.40;;;;;;5030514;28;20135;-59
2021/08/20 03:23:29;;;;;;;4.65;3.47;;;20.70;80.30;;;;;;5030468;28;20049;-60
2021/08/20 03:25:55;;;;;;;6.95;3.08;;;20.70;80.40;;;;;;5062687;28;20024;-60
2021/08/20 03:28:20;;;;;;;4.28;2.63;;;20.70;80.40;;;;;;5046299;28;20032;-60
2021/08/20 03:30:46;;;;;;;5.60;3.03;;;20.70;80.50;;;;;;5070620;28;20120;-60
2021/08/20 03:33:12;;;;;;;5.32;3.20;;;20.70;80.50;;;;;;5047514;28;20179;-59
2021/08/20 03:35:38;;;;;;;4.65;2.85;;;20.70;81.30;;;;;;5042044;28;20359;-59
2021/08/20 03:38:03;;;;;;;3.58;3.05;;;20.60;80.50;;;;;;5043199;28;20029;-60
2021/08/20 03:40:29;;;;;;;3.35;3.05;;;20.60;80.50;;;;;;5034299;28;20473;-59
2021/08/20 03:42:54;;;;;;;5.43;2.83;;;20.60;80.50;;;;;;5023029;28;20115;-59
2021/08/20 03:45:20;;;;;;;7.18;3.15;;;20.60;80.50;;;;;;5052160;28;20585;-59
2021/08/20 03:47:45;;;;;;;4.85;2.67;;;20.60;80.60;;;;;;5062768;28;20442;-59
2021/08/20 03:50:11;;;;;;;51.75;6.97;;;20.60;80.70;;;;;;5028631;28;20028;-59
2021/08/20 03:52:36;;;;;;;99.07;10.50;;;20.50;80.70;;;;;;5043489;28;20032;-60
2021/08/20 03:55:02;;;;;;;80.97;9.00;;;20.50;80.80;;;;;;5061247;28;20017;-59
2021/08/20 03:57:28;;;;;;;77.30;9.35;;;20.50;80.90;;;;;;5063745;28;20488;-59
2021/08/20 03:59:53;;;;;;;53.30;7.47;;;20.50;80.90;;;;;;5044225;28;20127;-59
2021/08/20 04:02:19;;;;;;;78.20;9.50;;;20.50;80.90;;;;;;5067335;28;20490;-59
2021/08/20 04:04:44;;;;;;;73.85;10.48;;;20.50;80.90;;;;;;5054355;28;20031;-59
2021/08/20 04:07:10;;;;;;;59.47;8.45;;;20.50;81.10;;;;;;5043506;28;20028;-60
2021/08/20 04:09:35;;;;;;;70.55;9.63;;;20.50;81.10;;;;;;5042394;28;20053;-60
2021/08/20 04:12:01;;;;;;;77.53;9.65;;;20.50;81.10;;;;;;5044444;28;20012;-59
2021/08/20 04:14:26;;;;;;;77.07;10.85;;;20.50;81.10;;;;;;5063700;28;20408;-60
2021/08/20 04:16:52;;;;;;;89.53;10.88;;;20.50;81.00;;;;;;5045293;28;20055;-59
2021/08/20 04:19:17;;;;;;;93.47;9.90;;;20.50;81.10;;;;;;5016960;28;20040;-59
2021/08/20 04:21:44;;;;;;;108.85;11.10;;;20.50;81.20;;;;;;5045778;28;20033;-59
2021/08/20 04:24:12;;;;;;;90.78;11.30;;;20.50;81.20;;;;;;5037214;28;20024;-59
2021/08/20 04:26:38;;;;;;;96.18;10.57;;;20.40;81.20;;;;;;5060367;28;20111;-59
2021/08/20 04:29:03;;;;;;;87.78;11.05;;;20.50;81.30;;;;;;5029542;28;20107;-59
2021/08/20 04:31:29;;;;;;;114.38;13.40;;;20.40;81.40;;;;;;5036645;28;20104;-60
2021/08/20 04:33:55;;;;;;;159.05;13.52;;;20.40;81.40;;;;;;5030650;28;20119;-59
2021/08/20 04:36:20;;;;;;;179.90;17.58;;;20.40;81.40;;;;;;5043162;28;20515;-59
2021/08/20 04:38:46;;;;;;;369.00;29.33;;;20.40;81.50;;;;;;5036627;28;20051;-60
2021/08/20 04:41:11;;;;;;;283.98;23.20;;;20.40;81.50;;;;;;5042543;28;20464;-60
2021/08/20 04:43:37;;;;;;;198.60;16.45;;;20.40;81.50;;;;;;5013968;28;20035;-60
2021/08/20 04:46:02;;;;;;;189.10;15.98;;;20.40;81.40;;;;;;5030369;28;20052;-59
2021/08/20 04:48:28;;;;;;;163.70;14.43;;;20.40;81.60;;;;;;5029971;28;20322;-59
2021/08/20 04:50:54;;;;;;;154.70;13.52;;;20.40;81.90;;;;;;5026401;28;20460;-59
2021/08/20 04:53:19;;;;;;;173.43;15.15;;;20.40;82.30;;;;;;5043871;28;20029;-60
2021/08/20 04:55:45;;;;;;;181.88;15.35;;;20.40;82.30;;;;;;5044407;28;20120;-60
2021/08/20 04:58:11;;;;;;;134.10;12.88;;;20.40;82.50;;;;;;5045542;28;20024;-59
2021/08/20 05:00:36;;;;;;;135.60;12.02;;;20.40;82.60;;;;;;5059212;28;21677;-60
2021/08/20 05:03:02;;;;;;;105.55;10.10;;;20.40;82.30;;;;;;5051014;28;20135;-59
2021/08/20 05:05:29;;;;;;;110.93;12.63;;;20.30;82.20;;;;;;5031680;28;20142;-59
2021/08/20 05:07:54;;;;;;;112.82;11.63;;;20.40;82.20;;;;;;5027642;28;20106;-59
2021/08/20 05:10:20;;;;;;;223.15;19.55;;;20.30;82.20;;;;;;5014460;28;20028;-60
2021/08/20 05:12:45;;;;;;;146.65;14.70;;;20.30;82.20;;;;;;5060283;28;20443;-59
2021/08/20 05:15:11;;;;;;;168.50;16.90;;;20.30;82.50;;;;;;5048247;28;20707;-59
2021/08/20 05:17:37;;;;;;;168.13;15.18;;;20.30;82.50;;;;;;5047754;28;20455;-60
2021/08/20 05:20:03;;;;;;;153.15;14.73;;;20.30;82.50;;;;;;5059950;28;20139;-60
2021/08/20 05:22:48;;;;;;;145.20;14.10;;;20.30;83.30;;;;;;5051248;28;20395;-60
2021/08/20 05:25:14;;;;;;;127.93;12.55;;;20.30;82.80;;;;;;5042535;28;20025;-59
2021/08/20 05:27:40;;;;;;;114.50;12.63;;;20.30;82.90;;;;;;5057574;28;20037;-59
2021/08/20 05:30:05;;;;;;;106.68;12.73;;;20.30;83.10;;;;;;5060163;28;20055;-59
2021/08/20 05:32:31;;;;;;;112.47;12.45;;;20.30;83.30;;;;;;5028226;28;20067;-60
2021/08/20 05:34:56;;;;;;;107.65;11.88;;;20.30;83.20;;;;;;5013356;28;20098;-60
2021/08/20 05:37:22;;;;;;;101.93;11.77;;;20.30;83.10;;;;;;5067225;28;20032;-59
2021/08/20 05:39:47;;;;;;;80.25;12.32;;;20.30;83.10;;;;;;5029313;28;20051;-60
2021/08/20 05:42:13;;;;;;;89.05;10.57;;;20.30;83.10;;;;;;5024975;28;20055;-60
2021/08/20 05:44:38;;;;;;;94.55;10.48;;;20.30;83.20;;;;;;5065131;28;20395;-59
2021/08/20 05:47:04;;;;;;;81.78;11.70;;;20.30;83.10;;;;;;5041358;28;20175;-59
2021/08/20 05:49:30;;;;;;;70.90;10.23;;;20.30;83.00;;;;;;5059403;28;20032;-59
2021/08/20 05:51:55;;;;;;;64.70;9.57;;;20.30;82.80;;;;;;5045467;28;20656;-60
2021/08/20 05:54:21;;;;;;;78.28;9.73;;;20.30;82.80;;;;;;5044482;28;20040;-60
2021/08/20 05:56:46;;;;;;;73.45;9.73;;;20.30;82.80;;;;;;5034020;28;20032;-59
2021/08/20 05:59:12;;;;;;;88.85;9.57;;;20.30;82.80;;;;;;5025057;28;20028;-59
2021/08/20 06:01:37;;;;;;;71.10;9.02;;;20.30;82.60;;;;;;5061525;28;20078;-60
2021/08/20 06:04:04;;;;;;;80.43;8.43;;;20.30;82.50;;;;;;5043496;28;20902;-59
2021/08/20 06:06:29;;;;;;;60.28;7.60;;;20.30;82.50;;;;;;5007321;28;20532;-60
2021/08/20 06:08:55;;;;;;;52.42;7.78;;;20.30;82.50;;;;;;5027290;28;20068;-60
2021/08/20 06:11:20;;;;;;;50.30;7.07;;;20.30;82.60;;;;;;5041839;28;20107;-60
2021/08/20 06:13:49;;;;;;;46.60;7.57;;;20.30;82.60;;;;;;5042452;28;20120;-60
2021/08/20 06:16:15;;;;;;;41.13;7.40;;;20.30;82.60;;;;;;5064247;28;20029;-59
2021/08/20 06:18:41;;;;;;;39.03;6.63;;;20.40;82.70;;;;;;5020932;28;20060;-59
2021/08/20 06:21:06;;;;;;;32.45;6.30;;;20.30;82.50;;;;;;5039513;28;20017;-59
2021/08/20 06:23:32;;;;;;;43.53;6.82;;;20.40;82.70;;;;;;5060318;28;20021;-60
2021/08/20 06:25:57;;;;;;;27.58;6.43;;;20.40;82.60;;;;;;5042952;28;20100;-60
2021/08/20 06:28:23;;;;;;;39.30;6.28;;;20.40;82.80;;;;;;5044465;28;20528;-59
2021/08/20 06:30:49;;;;;;;34.85;6.50;;;20.40;83.40;;;;;;5049130;28;20063;-59
2021/08/20 06:33:15;;;;;;;30.70;5.47;;;20.40;82.70;;;;;;5058650;28;20066;-59
2021/08/20 06:35:41;;;;;;;25.58;5.25;;;20.40;82.50;;;;;;5033988;28;20033;-59
2021/08/20 06:38:06;;;;;;;24.55;5.07;;;20.40;82.50;;;;;;5033747;28;20024;-59
2021/08/20 06:40:33;;;;;;;25.27;4.93;;;20.40;82.40;;;;;;5038462;28;20620;-59
2021/08/20 06:42:58;;;;;;;24.83;5.22;;;20.50;82.50;;;;;;5023132;28;20059;-59
2021/08/20 06:45:24;;;;;;;30.77;5.55;;;20.50;82.70;;;;;;5044985;28;20483;-60
2021/08/20 06:47:49;;;;;;;33.60;5.35;;;20.50;82.80;;;;;;5045681;28;20028;-60
2021/08/20 06:50:15;;;;;;;31.80;5.45;;;20.50;82.80;;;;;;5059958;28;20043;-60
2021/08/20 06:52:40;;;;;;;25.27;4.38;;;20.50;82.80;;;;;;5060951;28;20040;-60
2021/08/20 06:55:06;;;;;;;19.75;4.40;;;20.50;83.60;;;;;;5025236;28;20019;-59
2021/08/20 06:57:32;;;;;;;32.67;6.05;;;20.50;82.70;;;;;;5021355;28;20044;-60
2021/08/20 06:59:57;;;;;;;18.88;5.10;;;20.50;82.80;;;;;;5026820;28;20039;-59
2021/08/20 07:02:29;;;;;;;33.42;4.97;;;20.50;82.70;;;;;;5011917;28;20056;-61
2021/08/20 07:04:58;;;;;;;26.85;5.25;;;20.50;82.70;;;;;;5041388;28;20115;-59
2021/08/20 07:07:35;;;;;;;26.23;4.82;;;20.50;83.20;;;;;;5040273;28;20464;-60
2021/08/20 07:10:06;;;;;;;15.32;4.90;;;20.50;83.30;;;;;;5023231;28;20036;-59
2021/08/20 07:12:35;;;;;;;25.42;4.47;;;20.40;83.60;;;;;;5023126;28;20028;-59
2021/08/20 07:15:07;;;;;;;31.58;5.60;;;20.40;83.70;;;;;;5045204;28;20108;-60
2021/08/20 07:17:38;;;;;;;24.55;4.82;;;20.40;84.20;;;;;;5044562;28;20044;-60
2021/08/20 07:20:15;;;;;;;;;;;;;;;;;;;;;
2021/08/20 07:22:46;;;;;;;30.98;4.90;;;20.40;84.20;;;;;;5025834;28;20033;-60
2021/08/20 07:25:12;;;;;;;31.50;5.55;;;20.30;84.30;;;;;;5023130;28;20053;-60
2021/08/20 07:27:38;;;;;;;25.83;4.75;;;20.30;84.30;;;;;;5026943;28;20028;-60
2021/08/20 07:30:09;;;;;;;24.05;4.88;;;20.30;84.40;;;;;;5037538;28;20483;-60
2021/08/20 07:32:49;;;;;;;38.30;5.47;;;20.40;84.40;;;;;;5025026;28;20032;-60
2021/08/20 07:35:18;;;;;;;23.60;4.40;;;20.30;84.20;;;;;;5030891;28;20036;-60
2021/08/20 07:37:46;;;;;;;24.73;4.10;;;20.40;84.10;;;;;;5037890;28;20115;-60
2021/08/20 07:40:12;;;;;;;46.95;5.88;;;20.40;84.00;;;;;;5055540;28;20052;-60
2021/08/20 07:42:40;;;;;;;36.25;5.85;;;20.40;83.70;;;;;;5023895;28;20033;-60
2021/08/20 07:45:09;;;;;;;33.30;5.28;;;20.40;83.60;;;;;;5039466;28;20041;-60
2021/08/20 07:47:51;;;;;;;37.13;5.93;;;20.50;83.50;;;;;;5039401;28;20028;-59
2021/08/20 07:50:22;;;;;;;60.45;7.80;;;20.50;83.60;;;;;;5038312;28;20044;-60
2021/08/20 07:52:51;;;;;;;70.82;7.90;;;20.50;83.30;;;;;;5027265;28;20025;-59
2021/08/20 07:55:28;;;;;;;57.53;7.85;;;20.50;83.50;;;;;;5041722;28;20031;-59
2021/08/20 07:57:57;;;;;;;65.88;9.27;;;20.50;83.30;;;;;;5030916;28;20099;-60
2021/08/20 08:00:27;;;;;;;74.20;9.35;;;20.50;83.50;;;;;;5028840;28;20036;-59
2021/08/20 08:02:56;;;;;;;84.18;9.50;;;20.60;83.60;;;;;;5026121;28;20136;-59
2021/08/20 08:05:25;;;;;;;90.88;10.18;;;20.60;83.70;;;;;;5038104;28;20041;-59
2021/08/20 08:07:53;;;;;;;64.55;8.75;;;20.70;83.50;;;;;;5040675;28;20052;-59
2021/08/20 08:10:22;;;;;;;68.97;6.95;;;20.70;83.50;;;;;;5043862;28;20025;-60
2021/08/20 08:13:01;;;;;;;100.63;11.40;;;20.70;83.50;;;;;;5033808;28;20036;-60
2021/08/20 08:15:32;;;;;;;82.13;10.25;;;20.70;83.60;;;;;;5037284;28;20033;-60
2021/08/20 08:18:11;;;;;;;68.15;7.40;;;20.70;83.30;;;;;;5023094;28;20144;-60
2021/08/20 08:20:45;;;;;;;71.57;9.13;;;20.70;83.50;;;;;;5023520;28;20056;-60
2021/08/20 08:23:15;;;;;;;58.85;8.15;;;20.80;83.90;;;;;;5043351;28;20051;-59
2021/08/20 08:25:41;;;;;;;78.85;9.25;;;20.80;84.00;;;;;;5027090;28;20424;-60
2021/08/20 08:28:17;;;;;;;82.63;9.57;;;20.80;84.00;;;;;;5044649;28;20025;-60
2021/08/20 08:30:51;;;;;;;52.38;7.05;;;20.80;84.10;;;;;;5059186;28;20054;-60
2021/08/20 08:33:17;;;;;;;58.35;8.38;;;20.90;84.10;;;;;;5039027;28;20150;-60
2021/08/20 08:35:46;;;;;;;55.17;8.63;;;20.80;84.00;;;;;;5024733;28;20103;-59
2021/08/20 08:38:18;;;;;;;45.78;8.13;;;20.90;83.90;;;;;;5025552;28;20087;-59
2021/08/20 08:40:48;;;;;;;54.45;8.18;;;20.90;84.00;;;;;;5045591;28;20430;-59
2021/08/20 08:43:14;;;;;;;89.90;9.63;;;20.90;83.90;;;;;;5040390;28;20029;-60
2021/08/20 08:45:45;;;;;;;73.45;9.25;;;20.90;83.70;;;;;;5040014;28;20033;-59
2021/08/20 08:48:16;;;;;;;60.03;8.80;;;21.00;83.80;;;;;;5027127;28;20044;-60
2021/08/20 08:50:46;;;;;;;71.13;9.32;;;21.00;83.60;;;;;;5042193;28;20441;-59
2021/08/20 08:53:15;;;;;;;102.97;10.43;;;21.00;83.70;;;;;;5026478;28;20176;-59
2021/08/20 08:55:51;;;;;;;102.15;10.68;;;21.00;83.60;;;;;;5028480;28;20821;-60
2021/08/20 08:58:20;;;;;;;244.38;24.40;;;21.10;83.80;;;;;;5067542;28;20136;-60
2021/08/20 09:00:48;;;;;;;185.98;18.98;;;21.10;83.70;;;;;;5039530;28;20056;-59
2021/08/20 09:03:27;;;;;;;79.60;10.15;;;21.20;83.80;;;;;;5058987;28;20032;-60
2021/08/20 09:06:14;;;;;;;78.38;10.20;;;21.20;83.20;;;;;;5037269;28;20051;-60
2021/08/20 09:08:43;;;;;;;88.82;10.23;;;21.20;83.00;;;;;;5034843;28;20038;-60
2021/08/20 09:11:13;;;;;;;69.68;10.18;;;21.20;82.70;;;;;;5016118;28;21294;-60
2021/08/20 09:13:38;;;;;;;108.47;11.55;;;21.20;82.70;;;;;;5020206;28;20161;-60
2021/08/20 09:16:08;;;;;;;67.28;10.25;;;21.30;82.80;;;;;;5041865;28;20057;-59
2021/08/20 09:18:34;;;;;;;76.80;9.60;;;21.30;82.60;;;;;;5042826;28;20045;-61
2021/08/20 09:20:59;;;;;;;80.72;9.27;;;21.30;82.50;;;;;;5008397;28;20090;-60
2021/08/20 09:23:26;;;;;;;75.75;9.55;;;21.40;82.60;;;;;;5023974;28;20130;-60
2021/08/20 09:25:52;;;;;;;74.53;8.02;;;21.40;82.30;;;;;;5040129;28;20028;-60
2021/08/20 09:28:21;;;;;;;77.38;8.93;;;21.40;82.20;;;;;;5028233;28;20066;-60
2021/08/20 09:30:58;;;;;;;56.78;8.70;;;21.40;82.20;;;;;;5040456;28;20380;-60
2021/08/20 09:33:27;;;;;;;72.03;9.07;;;21.50;82.20;;;;;;5042381;28;20067;-60
2021/08/20 09:35:58;;;;;;;51.42;7.55;;;21.50;82.00;;;;;;5040207;28;20051;-60
2021/08/20 09:38:24;;;;;;;68.97;9.32;;;21.80;81.90;;;;;;5057804;28;20028;-60
2021/08/20 09:40:52;;;;;;;52.80;7.20;;;21.50;81.70;;;;;;5020058;28;20142;-60
2021/08/20 09:43:20;;;;;;;51.45;8.75;;;21.60;81.60;;;;;;5035063;28;20143;-60
2021/08/20 09:46:07;;;;;;;117.95;13.20;;;21.60;81.60;;;;;;5063228;28;20019;-60
2021/08/20 09:48:44;;;;;;;68.05;8.98;;;21.60;81.80;;;;;;5040107;28;20041;-60
2021/08/20 09:51:11;;;;;;;69.50;8.93;;;21.70;81.90;;;;;;5040740;28;20127;-60
2021/08/20 09:53:36;;;;;;;78.63;9.25;;;21.70;81.60;;;;;;5020575;28;20032;-60
2021/08/20 09:56:06;;;;;;;89.72;10.63;;;21.70;81.40;;;;;;5020920;28;20361;-60
2021/08/20 09:58:32;;;;;;;92.90;10.50;;;21.80;81.60;;;;;;5021246;28;20069;-59
2021/08/20 10:00:59;;;;;;;77.93;10.75;;;21.80;81.50;;;;;;5020157;28;20652;-60
2021/08/20 10:03:25;;;;;;;66.25;9.35;;;21.80;81.50;;;;;;5022835;28;20051;-60
2021/08/20 10:05:50;;;;;;;70.47;10.00;;;21.80;81.30;;;;;;5020250;28;20386;-60
2021/08/20 10:08:16;;;;;;;87.65;11.00;;;21.90;81.40;;;;;;5031802;28;20052;-60
2021/08/20 10:10:44;;;;;;;71.80;10.05;;;21.90;81.30;;;;;;5018562;28;20139;-60
2021/08/20 10:13:15;;;;;;;68.60;9.60;;;21.90;81.20;;;;;;5001354;28;20074;-62
2021/08/20 10:15:40;;;;;;;53.95;8.27;;;22.00;81.20;;;;;;5004331;28;20033;-60
2021/08/20 10:18:07;;;;;;;76.57;11.10;;;22.00;81.10;;;;;;5035589;28;20041;-60
2021/08/20 10:20:36;;;;;;;85.60;10.35;;;22.10;80.90;;;;;;5022180;28;20024;-60
2021/08/20 10:23:02;;;;;;;53.28;8.98;;;22.10;80.80;;;;;;5006405;28;20069;-60
2021/08/20 10:25:28;;;;;;;50.05;8.77;;;22.10;81.30;;;;;;5006679;28;20086;-60
2021/08/20 10:27:54;;;;;;;62.30;9.23;;;22.20;80.60;;;;;;5022565;28;20040;-60
2021/08/20 10:30:19;;;;;;;69.22;9.05;;;22.20;80.70;;;;;;5020452;28;20483;-60
2021/08/20 10:33:01;;;;;;;70.53;10.70;;;22.30;80.60;;;;;;5027270;28;20048;-60
2021/08/20 10:35:49;;;;;;;198.45;19.50;;;22.30;80.50;;;;;;5021011;28;20095;-60
2021/08/20 10:38:27;;;;;;;79.22;11.35;;;22.30;80.40;;;;;;5056433;28;20033;-60
2021/08/20 10:41:05;;;;;;;99.13;14.95;;;22.40;80.30;;;;;;5020739;28;20573;-60
2021/08/20 10:44:12;;;;;;;96.03;13.30;;;22.50;80.10;;;;;;5046487;28;20477;-60
2021/08/20 10:46:38;;;;;;;86.80;11.73;;;22.50;79.90;;;;;;4991559;28;20117;-60
2021/08/20 10:49:21;;;;;;;76.30;10.15;;;22.50;79.80;;;;;;4991972;28;20025;-60
2021/08/20 10:51:52;;;;;;;68.70;9.50;;;22.70;79.50;;;;;;5030117;28;20028;-60
2021/08/20 10:54:30;;;;;;;50.63;8.65;;;22.60;79.20;;;;;;5052106;28;20624;-60
2021/08/20 10:56:56;;;;;;;46.60;9.00;;;22.70;79.00;;;;;;5039482;28;20025;-60
2021/08/20 10:59:42;;;;;;;56.25;10.60;;;22.70;78.70;;;;;;5039064;28;20040;-60
2021/08/20 11:02:23;;;;;;;76.50;10.68;;;22.70;78.90;;;;;;5054070;28;20035;-60
2021/08/20 11:05:11;;;;;;;69.50;9.77;;;22.80;79.00;;;;;;5054591;28;20728;-60
2021/08/20 11:07:36;;;;;;;75.05;11.20;;;22.80;78.80;;;;;;5016719;28;20072;-59
2021/08/20 11:10:11;;;;;;;69.40;10.55;;;22.80;78.70;;;;;;5053107;28;20131;-60
2021/08/20 11:12:53;;;;;;;109.18;14.02;;;22.90;78.60;;;;;;5038856;28;20098;-60
2021/08/20 11:15:21;;;;;;;56.35;10.07;;;22.90;78.00;;;;;;5061680;28;20027;-60
2021/08/20 11:17:51;;;;;;;61.03;9.05;;;23.00;77.70;;;;;;5056447;28;20127;-60
2021/08/20 11:20:17;;;;;;;48.13;9.15;;;23.00;77.20;;;;;;5021503;28;20124;-60
2021/08/20 11:22:42;;;;;;;69.00;10.00;;;23.10;76.90;;;;;;5056885;28;20024;-60
2021/08/20 11:25:09;;;;;;;89.35;10.93;;;23.10;76.60;;;;;;5035698;28;20094;-60
2021/08/20 11:27:35;;;;;;;84.25;11.32;;;23.20;76.90;;;;;;5059596;28;20020;-60
2021/08/20 11:30:02;;;;;;;87.68;11.95;;;23.20;76.40;;;;;;5017699;28;20527;-60
2021/08/20 11:32:27;;;;;;;70.45;10.82;;;23.20;76.10;;;;;;5033118;28;20123;-60
2021/08/20 11:34:53;;;;;;;59.17;11.68;;;23.30;75.50;;;;;;5020192;28;20063;-60
2021/08/20 11:37:19;;;;;;;58.80;10.82;;;23.40;75.30;;;;;;5059450;28;20036;-60
2021/08/20 11:40:06;;;;;;;85.35;11.02;;;23.40;75.10;;;;;;5017964;28;20159;-60
2021/08/20 11:42:31;;;;;;;92.70;12.68;;;23.50;74.40;;;;;;5034469;28;20104;-60
2021/08/20 11:44:57;;;;;;;92.00;11.90;;;23.50;74.40;;;;;;5029671;28;20025;-60
2021/08/20 11:47:22;;;;;;;137.32;17.05;;;23.60;74.80;;;;;;5008347;28;20035;-60
2021/08/20 11:49:48;;;;;;;91.90;12.30;;;23.70;74.30;;;;;;5008352;28;20033;-60
2021/08/20 11:52:13;;;;;;;69.25;9.98;;;23.80;74.00;;;;;;5058734;28;20082;-60
2021/08/20 11:54:39;;;;;;;81.38;11.70;;;23.80;73.50;;;;;;5043291;28;20032;-60
2021/08/20 11:57:05;;;;;;;69.72;10.52;;;23.90;73.30;;;;;;5040617;28;20060;-60
2021/08/20 11:59:31;;;;;;;68.90;10.07;;;24.00;72.90;;;;;;5032806;28;20044;-60
2021/08/20 12:01:58;;;;;;;66.45;11.05;;;24.10;73.10;;;;;;5035461;28;20388;-60
2021/08/20 12:04:23;;;;;;;70.55;10.75;;;24.10;72.80;;;;;;5060503;28;20104;-60
2021/08/20 12:06:49;;;;;;;81.07;10.40;;;24.10;72.50;;;;;;5024539;28;20073;-60
2021/08/20 12:09:17;;;;;;;67.90;9.73;;;24.20;72.30;;;;;;5041161;28;20024;-60
2021/08/20 12:11:48;;;;;;;67.93;10.90;;;24.20;72.00;;;;;;5022977;28;20166;-60
2021/08/20 12:14:21;;;;;;;63.65;9.88;;;24.30;71.90;;;;;;5043755;28;20157;-60
2021/08/20 12:16:47;;;;;;;49.47;9.02;;;24.40;71.50;;;;;;5019385;28;20041;-60
2021/08/20 12:19:17;;;;;;;56.45;9.77;;;24.40;71.30;;;;;;5021116;28;20156;-60
2021/08/20 12:21:47;;;;;;;49.22;9.77;;;24.40;71.20;;;;;;5038320;28;20060;-60
2021/08/20 12:24:13;;;;;;;63.88;9.68;;;24.50;70.80;;;;;;5044464;28;20025;-60
2021/08/20 12:26:39;;;;;;;41.78;9.25;;;24.50;70.70;;;;;;5040902;28;20036;-60
2021/08/20 12:29:15;;;;;;;53.85;10.18;;;24.60;70.60;;;;;;5045906;28;20556;-60
2021/08/20 12:31:56;;;;;;;44.15;8.38;;;24.60;70.30;;;;;;5045183;28;20100;-60
2021/08/20 12:34:29;;;;;;;49.75;8.60;;;24.70;70.10;;;;;;5010708;28;20047;-60
2021/08/20 12:36:55;;;;;;;46.10;8.60;;;24.80;69.80;;;;;;5041021;28;20028;-60
2021/08/20 12:39:30;;;;;;;56.80;9.00;;;24.80;69.60;;;;;;5054957;28;20087;-60